Time;durP1;ratioP1;P1;durP2;ratioP2;P2;SDS_P1;SDS_P2;PMS_P1;PMS_P2;Temp;Humidity;BMP_temperature;BMP_pressure;BME280_temperature;BME280_humidity;BME280_pressure;Samples;Min_cycle;Max_cycle;Signal;HPM_P1;HPM_P2
2022/03/23 00:01:04;;;;;;;;;17.25;16.50;;;;;;;;5094796;27;47367;-73
2022/03/23 00:03:29;;;;;;;;;17.00;17.00;;;;;;;;5095215;27;45474;-73
2022/03/23 00:05:54;;;;;;;;;16.75;15.75;;;;;;;;5093456;27;45443;-74
2022/03/23 00:08:21;;;;;;;;;15.75;14.75;;;;;;;;5095152;27;45416;-73
2022/03/23 00:10:46;;;;;;;;;16.50;15.75;;;;;;;;5084180;27;46936;-73
2022/03/23 00:13:12;;;;;;;;;19.50;17.50;;;;;;;;5093088;27;45505;-73
2022/03/23 00:15:38;;;;;;;;;16.25;14.75;;;;;;;;5094636;27;45392;-73
2022/03/23 00:18:03;;;;;;;;;18.50;17.50;;;;;;;;5093531;27;45352;-73
2022/03/23 00:20:29;;;;;;;;;17.00;15.00;;;;;;;;5095099;27;46095;-74
2022/03/23 00:22:54;;;;;;;;;16.25;15.00;;;;;;;;5097062;27;45283;-73
2022/03/23 00:25:20;;;;;;;;;18.25;18.25;;;;;;;;5094821;27;45419;-73
2022/03/23 00:27:45;;;;;;;;;20.25;17.25;;;;;;;;5093038;27;45604;-73
2022/03/23 00:30:11;;;;;;;;;15.50;14.50;;;;;;;;5092733;27;46116;-73
2022/03/23 00:32:36;;;;;;;;;13.75;13.75;;;;;;;;5093164;27;45328;-74
2022/03/23 00:35:02;;;;;;;;;21.50;20.25;;;;;;;;5096883;27;45448;-73
2022/03/23 00:37:27;;;;;;;;;21.25;18.00;;;;;;;;5092447;27;45579;-73
2022/03/23 00:39:52;;;;;;;;;16.25;14.00;;;;;;;;5092531;27;47156;-73
2022/03/23 00:42:17;;;;;;;;;17.75;16.00;;;;;;;;5093443;27;45200;-73
2022/03/23 00:44:43;;;;;;;;;15.00;13.00;;;;;;;;5094549;27;45501;-73
2022/03/23 00:47:09;;;;;;;;;18.25;17.25;;;;;;;;5096059;27;45235;-74
2022/03/23 00:49:35;;;;;;;;;17.50;15.75;;;;;;;;5095569;27;46151;-73
2022/03/23 00:52:02;;;;;;;;;18.00;16.25;;;;;;;;5092286;27;45485;-73
2022/03/23 00:54:27;;;;;;;;;14.25;12.75;;;;;;;;5093909;27;45399;-73
2022/03/23 00:56:53;;;;;;;;;14.50;14.00;;;;;;;;5094373;27;45248;-73
2022/03/23 00:59:19;;;;;;;;;16.25;16.25;;;;;;;;5094481;27;45886;-74
2022/03/23 01:01:45;;;;;;;;;18.00;16.75;;;;;;;;5096664;27;45303;-73
2022/03/23 01:04:11;;;;;;;;;14.50;14.50;;;;;;;;5093296;27;45324;-73
2022/03/23 01:06:36;;;;;;;;;18.00;15.75;;;;;;;;5094337;27;45340;-73
2022/03/23 01:09:02;;;;;;;;;16.75;15.00;;;;;;;;5093866;27;45342;-73
2022/03/23 01:11:27;;;;;;;;;17.50;17.50;;;;;;;;5093782;27;45364;-74
2022/03/23 01:13:52;;;;;;;;;15.25;14.25;;;;;;;;5096641;27;45416;-72
2022/03/23 01:16:17;;;;;;;;;18.50;18.00;;;;;;;;5091346;27;45531;-73
2022/03/23 01:18:42;;;;;;;;;17.00;15.75;;;;;;;;5094001;27;47084;-73
2022/03/23 01:21:08;;;;;;;;;17.50;17.00;;;;;;;;5092809;27;45381;-73
2022/03/23 01:23:33;;;;;;;;;20.00;17.00;;;;;;;;5093802;27;45462;-73
2022/03/23 01:25:58;;;;;;;;;19.25;16.50;;;;;;;;5073822;27;45444;-73
2022/03/23 01:28:23;;;;;;;;;18.50;16.25;;;;;;;;5093807;27;46140;-73
2022/03/23 01:30:49;;;;;;;;;17.00;15.00;;;;;;;;5093668;27;45398;-73
2022/03/23 01:33:14;;;;;;;;;17.25;16.50;;;;;;;;5094191;27;45523;-73
2022/03/23 01:35:39;;;;;;;;;17.00;15.50;;;;;;;;5092966;27;45408;-74
2022/03/23 01:38:04;;;;;;;;;15.00;13.50;;;;;;;;5095156;27;45448;-73
2022/03/23 01:40:29;;;;;;;;;16.75;16.50;;;;;;;;5094908;27;45420;-74
2022/03/23 01:42:55;;;;;;;;;17.75;16.75;;;;;;;;5093694;27;45422;-73
2022/03/23 01:45:20;;;;;;;;;20.50;17.25;;;;;;;;5091852;27;45486;-72
2022/03/23 01:47:45;;;;;;;;;18.50;17.50;;;;;;;;5092022;27;45398;-73
2022/03/23 01:50:10;;;;;;;;;16.25;14.75;;;;;;;;5094716;27;45411;-73
2022/03/23 01:52:36;;;;;;;;;15.50;15.50;;;;;;;;5095930;27;45420;-73
2022/03/23 01:55:05;;;;;;;;;17.50;17.00;;;;;;;;5097421;27;45496;-73
2022/03/23 01:57:30;;;;;;;;;23.75;17.25;;;;;;;;5098941;27;47262;-73
2022/03/23 01:59:56;;;;;;;;;15.75;14.75;;;;;;;;5097157;27;46084;-73
2022/03/23 02:02:21;;;;;;;;;17.75;16.50;;;;;;;;5097429;27;45387;-73
2022/03/23 02:04:46;;;;;;;;;17.25;14.00;;;;;;;;5097808;27;45378;-73
2022/03/23 02:07:14;;;;;;;;;18.75;16.50;;;;;;;;5096400;27;47482;-74
2022/03/23 02:09:39;;;;;;;;;18.25;15.75;;;;;;;;5096313;27;45243;-73
2022/03/23 02:12:08;;;;;;;;;15.25;14.25;;;;;;;;5095086;27;48529;-73
2022/03/23 02:14:34;;;;;;;;;19.25;17.75;;;;;;;;5086000;27;45334;-74
2022/03/23 02:16:59;;;;;;;;;17.00;14.50;;;;;;;;5081916;27;46340;-73
2022/03/23 02:19:24;;;;;;;;;17.25;15.50;;;;;;;;5096584;27;45461;-73
2022/03/23 02:21:53;;;;;;;;;20.75;15.25;;;;;;;;5095047;27;45260;-74
2022/03/23 02:24:21;;;;;;;;;18.75;16.25;;;;;;;;5094911;27;45465;-73
2022/03/23 02:26:46;;;;;;;;;16.25;14.25;;;;;;;;5094682;27;46453;-73
2022/03/23 02:29:14;;;;;;;;;17.50;17.00;;;;;;;;5097689;27;45418;-74
2022/03/23 02:31:39;;;;;;;;;17.00;16.50;;;;;;;;5096798;27;45331;-74
2022/03/23 02:34:04;;;;;;;;;18.75;17.00;;;;;;;;5095462;27;45583;-73
2022/03/23 02:36:31;;;;;;;;;14.75;14.75;;;;;;;;5096205;27;47005;-74
2022/03/23 02:38:56;;;;;;;;;20.00;18.75;;;;;;;;5095691;27;45512;-74
2022/03/23 02:41:21;;;;;;;;;19.00;18.50;;;;;;;;5097035;27;45291;-73
2022/03/23 02:43:47;;;;;;;;;20.25;18.50;;;;;;;;5097206;27;45393;-74
2022/03/23 02:46:13;;;;;;;;;16.75;16.75;;;;;;;;5094746;27;46069;-74
2022/03/23 02:48:38;;;;;;;;;15.50;14.50;;;;;;;;5095961;27;45239;-73
2022/03/23 02:51:03;;;;;;;;;16.50;16.25;;;;;;;;5096009;27;45476;-74
2022/03/23 03:01:54;;;;;;;;;18.00;14.25;;;;;;;;5098312;27;45561;-74
2022/03/23 03:04:20;;;;;;;;;17.00;15.25;;;;;;;;5094925;27;45518;-74
2022/03/23 03:06:48;;;;;;;;;16.00;14.50;;;;;;;;5094574;27;47170;-74
2022/03/23 03:09:14;;;;;;;;;15.50;15.50;;;;;;;;5095507;27;45583;-74
2022/03/23 03:11:40;;;;;;;;;16.75;15.50;;;;;;;;5094501;27;45359;-74
2022/03/23 03:14:05;;;;;;;;;20.00;18.00;;;;;;;;5095537;27;45371;-73
2022/03/23 03:16:30;;;;;;;;;16.00;16.00;;;;;;;;5094936;27;45334;-74
2022/03/23 03:18:56;;;;;;;;;16.25;14.75;;;;;;;;5092415;27;45426;-74
2022/03/23 03:21:21;;;;;;;;;16.50;16.25;;;;;;;;5095849;27;45562;-73
2022/03/23 03:23:46;;;;;;;;;20.50;19.00;;;;;;;;5096010;27;45648;-74
2022/03/23 03:26:12;;;;;;;;;20.00;18.75;;;;;;;;5096783;27;46108;-73
2022/03/23 03:28:38;;;;;;;;;18.50;15.25;;;;;;;;5096836;27;45443;-74
2022/03/23 03:31:04;;;;;;;;;18.75;15.50;;;;;;;;5095354;27;45358;-74
2022/03/23 03:33:30;;;;;;;;;17.75;15.50;;;;;;;;5095476;27;45483;-73
2022/03/23 03:35:55;;;;;;;;;18.00;16.75;;;;;;;;5094165;27;46030;-74
2022/03/23 03:38:20;;;;;;;;;15.75;14.75;;;;;;;;5095768;27;45224;-74
2022/03/23 03:40:45;;;;;;;;;17.75;16.00;;;;;;;;5097662;27;45327;-73
2022/03/23 03:43:11;;;;;;;;;19.00;16.75;;;;;;;;5095745;27;45453;-73
2022/03/23 03:45:36;;;;;;;;;22.25;16.50;;;;;;;;5095644;27;45542;-73
2022/03/23 03:48:01;;;;;;;;;17.75;16.00;;;;;;;;5095298;27;45276;-73
2022/03/23 03:50:26;;;;;;;;;15.75;15.75;;;;;;;;5095380;27;45537;-74
2022/03/23 03:52:52;;;;;;;;;18.75;16.25;;;;;;;;5097801;27;45433;-74
2022/03/23 03:55:17;;;;;;;;;20.25;18.00;;;;;;;;5093515;27;46114;-73
2022/03/23 03:57:42;;;;;;;;;15.75;15.75;;;;;;;;5094987;27;45367;-74
2022/03/23 04:00:07;;;;;;;;;18.00;16.25;;;;;;;;5097221;27;45331;-73
2022/03/23 04:02:33;;;;;;;;;17.50;15.75;;;;;;;;5096625;27;45329;-74
2022/03/23 04:04:58;;;;;;;;;22.25;18.50;;;;;;;;5097705;27;45633;-74
2022/03/23 04:07:23;;;;;;;;;16.00;15.00;;;;;;;;5096244;27;45469;-73
2022/03/23 04:09:48;;;;;;;;;17.50;16.50;;;;;;;;5095091;27;46790;-74
2022/03/23 04:12:13;;;;;;;;;20.75;18.75;;;;;;;;5093939;27;45433;-74
2022/03/23 04:14:39;;;;;;;;;17.50;15.25;;;;;;;;5095080;27;45442;-73
2022/03/23 04:17:04;;;;;;;;;15.75;15.75;;;;;;;;5096339;27;45361;-73
2022/03/23 04:19:30;;;;;;;;;19.50;16.25;;;;;;;;5093841;27;45422;-74
2022/03/23 04:21:55;;;;;;;;;17.75;16.75;;;;;;;;5095023;27;45996;-73
2022/03/23 04:24:20;;;;;;;;;16.00;15.75;;;;;;;;5094760;27;47128;-74
2022/03/23 04:26:45;;;;;;;;;16.75;16.50;;;;;;;;5094733;27;45420;-74
2022/03/23 04:29:11;;;;;;;;;17.25;17.00;;;;;;;;5096126;27;45327;-74
2022/03/23 04:31:36;;;;;;;;;20.00;18.00;;;;;;;;5094138;27;45453;-73
2022/03/23 04:34:01;;;;;;;;;13.25;13.25;;;;;;;;5094773;27;46182;-74
2022/03/23 04:36:26;;;;;;;;;15.00;15.00;;;;;;;;5088094;27;45356;-74
2022/03/23 04:38:51;;;;;;;;;19.00;17.00;;;;;;;;5092752;27;45373;-74
2022/03/23 04:41:17;;;;;;;;;15.75;15.75;;;;;;;;5094994;27;45381;-74
2022/03/23 04:43:42;;;;;;;;;20.25;16.75;;;;;;;;5096570;27;45307;-74
2022/03/23 04:46:07;;;;;;;;;20.00;18.00;;;;;;;;5094136;27;45539;-74
2022/03/23 04:48:33;;;;;;;;;17.75;17.00;;;;;;;;5093562;27;48501;-74
2022/03/23 04:50:58;;;;;;;;;16.50;15.25;;;;;;;;5093503;27;45481;-73
2022/03/23 04:53:23;;;;;;;;;16.50;15.00;;;;;;;;5094376;27;46338;-74
2022/03/23 04:55:49;;;;;;;;;17.50;15.25;;;;;;;;5087322;27;45420;-74
2022/03/23 04:58:14;;;;;;;;;18.25;16.75;;;;;;;;5092852;27;45457;-74
2022/03/23 05:00:40;;;;;;;;;22.75;16.75;;;;;;;;5093824;27;45864;-74
2022/03/23 05:03:05;;;;;;;;;16.00;15.00;;;;;;;;5094376;27;46178;-74
2022/03/23 05:05:30;;;;;;;;;16.75;15.50;;;;;;;;5094449;27;45390;-73
2022/03/23 05:07:56;;;;;;;;;18.75;16.25;;;;;;;;5096925;27;45350;-74
2022/03/23 05:10:21;;;;;;;;;21.50;18.25;;;;;;;;5094190;27;45410;-74
2022/03/23 05:12:46;;;;;;;;;17.00;15.25;;;;;;;;5093947;27;46085;-74
2022/03/23 05:15:13;;;;;;;;;15.00;14.75;;;;;;;;5092084;27;45470;-73
2022/03/23 05:17:39;;;;;;;;;13.50;13.00;;;;;;;;5092088;27;45569;-74
2022/03/23 05:20:05;;;;;;;;;15.25;13.50;;;;;;;;5095929;27;45436;-74
2022/03/23 05:22:30;;;;;;;;;18.00;18.00;;;;;;;;5094759;27;46570;-74
2022/03/23 05:24:56;;;;;;;;;19.00;17.25;;;;;;;;5093823;27;45313;-73
2022/03/23 05:27:21;;;;;;;;;20.75;17.00;;;;;;;;5096265;27;45470;-74
2022/03/23 05:29:46;;;;;;;;;17.50;17.00;;;;;;;;5097724;27;45544;-74
2022/03/23 05:32:16;;;;;;;;;16.50;16.50;;;;;;;;5098298;27;46017;-73
2022/03/23 05:34:42;;;;;;;;;14.75;13.75;;;;;;;;5099561;27;45500;-74
2022/03/23 05:37:07;;;;;;;;;17.00;16.25;;;;;;;;5096155;27;45406;-73
2022/03/23 05:39:32;;;;;;;;;15.50;14.25;;;;;;;;5095294;27;45514;-73
2022/03/23 05:41:57;;;;;;;;;18.50;16.00;;;;;;;;5095657;27;45644;-74
2022/03/23 05:44:23;;;;;;;;;15.00;15.00;;;;;;;;5097222;27;45487;-74
2022/03/23 05:46:48;;;;;;;;;21.00;16.25;;;;;;;;5099701;27;45491;-73
2022/03/23 05:49:14;;;;;;;;;19.25;19.25;;;;;;;;5096485;27;45271;-73
2022/03/23 05:51:39;;;;;;;;;16.75;16.75;;;;;;;;5095662;27;45484;-74
2022/03/23 05:54:05;;;;;;;;;17.25;15.75;;;;;;;;5097085;27;45408;-74
2022/03/23 05:56:30;;;;;;;;;16.00;14.50;;;;;;;;5096881;27;45294;-74
2022/03/23 05:58:55;;;;;;;;;15.75;15.25;;;;;;;;5099336;27;45365;-73
2022/03/23 06:01:20;;;;;;;;;18.00;17.00;;;;;;;;5097847;27;47226;-74
2022/03/23 06:03:49;;;;;;;;;19.00;18.00;;;;;;;;5096018;27;45328;-73
2022/03/23 06:06:14;;;;;;;;;15.75;14.50;;;;;;;;5096761;27;45400;-74
2022/03/23 06:08:39;;;;;;;;;20.00;18.25;;;;;;;;5097105;27;45303;-74
2022/03/23 06:11:05;;;;;;;;;15.75;15.75;;;;;;;;5098844;27;46114;-73
2022/03/23 06:13:30;;;;;;;;;19.00;17.25;;;;;;;;5096810;27;45347;-73
2022/03/23 06:15:55;;;;;;;;;15.00;15.00;;;;;;;;5095442;27;45355;-73
2022/03/23 06:18:20;;;;;;;;;19.00;16.50;;;;;;;;5097079;27;45533;-73
2022/03/23 06:20:45;;;;;;;;;15.00;15.00;;;;;;;;5096939;27;46074;-74
2022/03/23 06:23:11;;;;;;;;;18.75;16.25;;;;;;;;5098231;27;45370;-74
2022/03/23 06:25:36;;;;;;;;;15.75;15.25;;;;;;;;5097941;27;45398;-74
2022/03/23 06:28:01;;;;;;;;;17.25;15.00;;;;;;;;5094854;27;45529;-74
2022/03/23 06:30:26;;;;;;;;;17.50;17.00;;;;;;;;5096556;27;46920;-73
2022/03/23 06:32:52;;;;;;;;;16.00;15.50;;;;;;;;5094925;27;45379;-74
2022/03/23 06:35:17;;;;;;;;;18.50;15.00;;;;;;;;5098053;27;45547;-73
2022/03/23 06:37:42;;;;;;;;;16.75;15.25;;;;;;;;5096381;27;45675;-73
2022/03/23 06:40:08;;;;;;;;;17.50;15.50;;;;;;;;5093639;27;45882;-74
2022/03/23 06:42:33;;;;;;;;;19.00;17.25;;;;;;;;5094321;27;45506;-74
2022/03/23 06:45:01;;;;;;;;;18.25;16.00;;;;;;;;5096721;27;45509;-73
2022/03/23 06:47:26;;;;;;;;;19.25;15.00;;;;;;;;5096512;27;45564;-73
2022/03/23 06:49:51;;;;;;;;;15.25;14.75;;;;;;;;5098494;27;45971;-73
2022/03/23 06:52:17;;;;;;;;;17.50;17.25;;;;;;;;5094033;27;45317;-73
2022/03/23 06:54:43;;;;;;;;;16.75;16.75;;;;;;;;5096159;27;45216;-73
2022/03/23 06:57:08;;;;;;;;;18.75;16.00;;;;;;;;5094054;27;45286;-74
2022/03/23 06:59:33;;;;;;;;;16.50;15.50;;;;;;;;5096304;27;47489;-74
2022/03/23 07:01:58;;;;;;;;;17.75;16.00;;;;;;;;5098537;27;45349;-73
2022/03/23 07:04:24;;;;;;;;;16.25;15.00;;;;;;;;5096195;27;45516;-74
2022/03/23 07:06:50;;;;;;;;;16.50;15.00;;;;;;;;5094372;27;45458;-74
2022/03/23 07:09:35;;;;;;;;;19.75;15.75;;;;;;;;5095558;27;45521;-74
2022/03/23 07:12:10;;;;;;;;;20.00;17.00;;;;;;;;5095111;27;45689;-73
2022/03/23 07:14:37;;;;;;;;;16.00;16.00;;;;;;;;5081255;27;45621;-71
2022/03/23 07:17:03;;;;;;;;;16.25;16.25;;;;;;;;5098134;27;45383;-72
2022/03/23 07:19:28;;;;;;;;;19.50;17.25;;;;;;;;5094974;27;46226;-71
2022/03/23 07:21:54;;;;;;;;;14.50;14.00;;;;;;;;5093174;27;45427;-72
2022/03/23 07:24:20;;;;;;;;;18.25;15.25;;;;;;;;5096034;27;45446;-73
2022/03/23 07:26:45;;;;;;;;;16.50;14.50;;;;;;;;5096758;27;45502;-70
2022/03/23 07:29:10;;;;;;;;;16.50;16.50;;;;;;;;5096739;27;46378;-70
2022/03/23 07:31:36;;;;;;;;;16.50;15.00;;;;;;;;5094363;27;45438;-70
2022/03/23 07:34:02;;;;;;;;;16.25;13.75;;;;;;;;5094118;27;45387;-70
2022/03/23 07:36:27;;;;;;;;;15.50;15.00;;;;;;;;5095586;27;45599;-72
2022/03/23 07:38:52;;;;;;;;;17.25;17.00;;;;;;;;5095039;27;45254;-72
2022/03/23 07:41:18;;;;;;;;;18.00;16.75;;;;;;;;5087636;27;45448;-72
2022/03/23 07:43:43;;;;;;;;;16.00;14.50;;;;;;;;5097583;27;45526;-72
2022/03/23 07:46:08;;;;;;;;;16.00;14.00;;;;;;;;5095760;27;45540;-72
2022/03/23 07:48:34;;;;;;;;;18.50;18.50;;;;;;;;5095274;27;46144;-72
2022/03/23 07:50:59;;;;;;;;;15.50;14.75;;;;;;;;5083983;27;45426;-76
2022/03/23 07:53:24;;;;;;;;;17.75;16.50;;;;;;;;5094802;27;45647;-77
2022/03/23 07:55:49;;;;;;;;;13.75;13.75;;;;;;;;5097577;27;45348;-76
2022/03/23 07:58:14;;;;;;;;;15.75;14.00;;;;;;;;5095166;27;46150;-77
2022/03/23 08:00:42;;;;;;;;;26.25;24.25;;;;;;;;5095395;27;45477;-76
2022/03/23 08:03:07;;;;;;;;;21.75;21.75;;;;;;;;5093367;27;45349;-77
2022/03/23 08:05:32;;;;;;;;;22.00;20.50;;;;;;;;5093051;27;45441;-76
2022/03/23 08:07:58;;;;;;;;;17.25;15.00;;;;;;;;5096917;27;45946;-76
2022/03/23 08:10:23;;;;;;;;;15.75;15.75;;;;;;;;5092673;27;45358;-77
2022/03/23 08:12:50;;;;;;;;;19.50;16.25;;;;;;;;5094888;27;45379;-76
2022/03/23 08:15:16;;;;;;;;;19.25;17.00;;;;;;;;5094188;27;45532;-76
2022/03/23 08:17:41;;;;;;;;;18.25;16.00;;;;;;;;5092612;27;46140;-77
2022/03/23 08:23:12;;;;;;;;;17.50;17.50;;;;;;;;4991197;28;45412;-77
2022/03/23 08:25:38;;;;;;;;;17.50;16.25;;;;;;;;4993858;28;45496;-76
2022/03/23 08:28:04;;;;;;;;;19.25;15.50;;;;;;;;4992808;28;46144;-77
2022/03/23 08:30:29;;;;;;;;;15.25;14.25;;;;;;;;4991909;28;45537;-76
2022/03/23 08:32:54;;;;;;;;;14.00;14.00;;;;;;;;4992409;28;45369;-76
2022/03/23 08:35:20;;;;;;;;;18.25;17.00;;;;;;;;4993838;28;45506;-76
2022/03/23 08:37:45;;;;;;;;;18.00;16.00;;;;;;;;4994032;28;46311;-76
2022/03/23 08:40:10;;;;;;;;;17.75;15.75;;;;;;;;4993434;28;45466;-77
2022/03/23 08:42:36;;;;;;;;;16.50;14.25;;;;;;;;4993423;28;45390;-77
2022/03/23 08:45:02;;;;;;;;;19.00;16.75;;;;;;;;4993405;28;45458;-77
2022/03/23 08:47:28;;;;;;;;;17.75;15.25;;;;;;;;4992866;28;46814;-76
2022/03/23 08:49:53;;;;;;;;;17.75;15.25;;;;;;;;4994133;28;45385;-76
2022/03/23 08:52:18;;;;;;;;;15.25;13.50;;;;;;;;4992061;28;45466;-76
2022/03/23 08:54:43;;;;;;;;;18.75;18.00;;;;;;;;4991017;28;45423;-76
2022/03/23 08:57:09;;;;;;;;;17.50;14.75;;;;;;;;4992711;28;46178;-76
2022/03/23 08:59:34;;;;;;;;;16.75;15.00;;;;;;;;5078993;27;45547;-76
2022/03/23 09:01:59;;;;;;;;;19.00;15.00;;;;;;;;5095982;27;45314;-76
2022/03/23 09:04:24;;;;;;;;;17.00;14.75;;;;;;;;5094452;27;45434;-77
2022/03/23 09:06:50;;;;;;;;;15.50;14.75;;;;;;;;5093743;27;47121;-77
2022/03/23 09:09:15;;;;;;;;;15.75;15.50;;;;;;;;5094323;27;45355;-76
2022/03/23 09:11:43;;;;;;;;;12.75;12.75;;;;;;;;5077100;27;45447;-76
2022/03/23 09:14:09;;;;;;;;;15.50;15.50;;;;;;;;5095601;27;45374;-77
2022/03/23 09:16:34;;;;;;;;;20.25;16.75;;;;;;;;5092286;27;46425;-77
2022/03/23 09:19:02;;;;;;;;;17.75;15.00;;;;;;;;5092504;27;45253;-76
2022/03/23 09:21:27;;;;;;;;;8.25;8.00;;;;;;;;5091224;27;45387;-76
2022/03/23 09:23:52;;;;;;;;;19.75;16.75;;;;;;;;5093353;27;45497;-77
2022/03/23 09:26:17;;;;;;;;;15.50;14.00;;;;;;;;5094124;27;46278;-76
2022/03/23 09:28:42;;;;;;;;;15.25;15.25;;;;;;;;5095848;27;45331;-77
2022/03/23 09:31:08;;;;;;;;;17.00;15.75;;;;;;;;5093917;27;45337;-76
2022/03/23 09:33:33;;;;;;;;;14.00;14.00;;;;;;;;5094191;27;45449;-77
2022/03/23 09:35:58;;;;;;;;;13.75;13.00;;;;;;;;5094653;27;47196;-76
2022/03/23 09:38:24;;;;;;;;;16.50;15.00;;;;;;;;5094118;27;45248;-77
2022/03/23 09:40:50;;;;;;;;;19.00;17.00;;;;;;;;5095849;27;45280;-77
2022/03/23 09:43:16;;;;;;;;;15.00;13.00;;;;;;;;5093921;27;45441;-77
2022/03/23 09:45:47;;;;;;;;;17.50;16.00;;;;;;;;5094398;27;47102;-77
2022/03/23 09:48:14;;;;;;;;;18.75;18.25;;;;;;;;5093534;27;45604;-76
2022/03/23 09:50:41;;;;;;;;;17.00;14.00;;;;;;;;5093592;27;45410;-77
2022/03/23 09:53:07;;;;;;;;;16.75;16.00;;;;;;;;5095345;27;45441;-77
2022/03/23 09:55:32;;;;;;;;;16.00;14.50;;;;;;;;5091204;27;46516;-77
2022/03/23 09:57:59;;;;;;;;;15.50;14.50;;;;;;;;5092226;27;45543;-76
2022/03/23 10:00:27;;;;;;;;;15.00;15.00;;;;;;;;5091418;27;45278;-77
2022/03/23 10:02:55;;;;;;;;;16.00;14.00;;;;;;;;5092815;27;45371;-77
2022/03/23 10:05:22;;;;;;;;;17.25;15.25;;;;;;;;5094645;27;46408;-76
2022/03/23 10:08:03;;;;;;;;;14.75;13.00;;;;;;;;5095886;27;45280;-77
2022/03/23 10:10:37;;;;;;;;;15.00;15.00;;;;;;;;5094616;27;45556;-76
2022/03/23 10:13:21;;;;;;;;;15.75;14.25;;;;;;;;5093702;27;45386;-77
2022/03/23 10:16:05;;;;;;;;;17.50;16.25;;;;;;;;5092123;27;46124;-76
2022/03/23 10:18:39;;;;;;;;;15.25;15.25;;;;;;;;5088505;27;45516;-76
2022/03/23 10:21:05;;;;;;;;;17.00;16.00;;;;;;;;5097225;27;46230;-77
2022/03/23 10:23:31;;;;;;;;;15.00;14.75;;;;;;;;5096937;27;45786;-76
2022/03/23 10:25:57;;;;;;;;;17.50;16.00;;;;;;;;5098341;27;46358;-77
2022/03/23 10:28:23;;;;;;;;;21.00;16.00;;;;;;;;5095899;27;45342;-77
2022/03/23 10:30:48;;;;;;;;;11.25;9.00;;;;;;;;5096742;27;45869;-76
2022/03/23 10:33:20;;;;;;;;;13.25;11.50;;;;;;;;5096448;27;45284;-77
2022/03/23 10:35:46;;;;;;;;;14.75;14.75;;;;;;;;5096811;27;46077;-76
2022/03/23 10:38:12;;;;;;;;;16.25;15.75;;;;;;;;5097717;27;45322;-77
2022/03/23 10:40:37;;;;;;;;;19.50;16.00;;;;;;;;5098065;27;45541;-76
2022/03/23 10:43:03;;;;;;;;;15.25;14.50;;;;;;;;5095830;27;45469;-77
2022/03/23 10:45:31;;;;;;;;;17.50;17.00;;;;;;;;5093548;27;47185;-77
2022/03/23 10:48:06;;;;;;;;;16.75;15.75;;;;;;;;5096636;27;45513;-77
2022/03/23 10:50:31;;;;;;;;;20.00;18.00;;;;;;;;5096440;27;45389;-76
2022/03/23 10:53:01;;;;;;;;;15.50;14.25;;;;;;;;5098414;27;45413;-77
2022/03/23 10:55:32;;;;;;;;;18.75;17.00;;;;;;;;5097186;27;47261;-76
2022/03/23 10:57:57;;;;;;;;;16.25;14.25;;;;;;;;5096137;27;45299;-77
2022/03/23 11:00:32;;;;;;;;;16.25;15.75;;;;;;;;5092953;27;45326;-76
2022/03/23 11:02:59;;;;;;;;;16.00;14.25;;;;;;;;5094902;27;45301;-76
2022/03/23 11:05:32;;;;;;;;;16.00;14.75;;;;;;;;5095992;27;47997;-76
2022/03/23 11:08:08;;;;;;;;;17.25;15.00;;;;;;;;5098306;27;45449;-76
2022/03/23 11:16:08;;;;;;;;;16.75;14.25;;;;;;;;5093204;27;45382;-76
2022/03/23 11:18:33;;;;;;;;;15.00;13.00;;;;;;;;5087661;27;45738;-76
2022/03/23 11:20:59;;;;;;;;;16.00;14.25;;;;;;;;5096243;27;45490;-76
2022/03/23 11:23:24;;;;;;;;;20.25;14.50;;;;;;;;5095941;27;45466;-76
2022/03/23 11:25:54;;;;;;;;;12.00;12.00;;;;;;;;5096206;27;46348;-76
2022/03/23 11:28:23;;;;;;;;;16.00;15.00;;;;;;;;5084019;27;45443;-78
2022/03/23 11:30:49;;;;;;;;;16.50;15.25;;;;;;;;5094645;27;45443;-75
2022/03/23 11:33:16;;;;;;;;;17.75;15.75;;;;;;;;5097492;27;45434;-76
2022/03/23 11:35:46;;;;;;;;;14.50;13.00;;;;;;;;5097128;27;47032;-75
2022/03/23 11:38:12;;;;;;;;;12.50;12.25;;;;;;;;5097493;27;45385;-75
2022/03/23 11:40:39;;;;;;;;;14.00;12.75;;;;;;;;5097850;27;45544;-76
2022/03/23 11:43:05;;;;;;;;;13.75;13.75;;;;;;;;5096595;27;45484;-76
2022/03/23 11:45:30;;;;;;;;;16.00;13.00;;;;;;;;5094673;27;46093;-76
2022/03/23 11:48:07;;;;;;;;;13.25;11.00;;;;;;;;5095851;27;45494;-75
2022/03/23 11:50:39;;;;;;;;;15.50;15.00;;;;;;;;5079675;27;45419;-75
2022/03/23 11:53:08;;;;;;;;;14.00;13.00;;;;;;;;5093762;27;45570;-75
2022/03/23 11:55:45;;;;;;;;;15.25;13.75;;;;;;;;5094289;27;46780;-76
2022/03/23 11:58:15;;;;;;;;;17.25;15.25;;;;;;;;5095734;27;45327;-76
2022/03/23 12:00:47;;;;;;;;;14.25;12.00;;;;;;;;5095188;27;45601;-74
2022/03/23 12:03:12;;;;;;;;;16.00;12.00;;;;;;;;5093458;27;45497;-69
2022/03/23 12:05:57;;;;;;;;;16.25;14.25;;;;;;;;5096424;27;45538;-69
2022/03/23 12:08:41;;;;;;;;;14.75;13.25;;;;;;;;5094135;27;45337;-68
2022/03/23 12:11:27;;;;;;;;;14.75;14.25;;;;;;;;5092723;27;45427;-67
2022/03/23 12:13:56;;;;;;;;;10.50;10.50;;;;;;;;5095493;27;45332;-70
2022/03/23 12:16:41;;;;;;;;;15.50;11.75;;;;;;;;5093260;27;46413;-69
2022/03/23 12:19:06;;;;;;;;;12.00;11.00;;;;;;;;5092685;27;45530;-69
2022/03/23 12:21:40;;;;;;;;;13.00;13.00;;;;;;;;5092663;27;45414;-70
2022/03/23 12:24:13;;;;;;;;;13.25;12.50;;;;;;;;5093064;27;48341;-70
2022/03/23 12:26:39;;;;;;;;;14.00;12.00;;;;;;;;5084473;27;46558;-70
2022/03/23 12:29:12;;;;;;;;;15.25;14.25;;;;;;;;5096596;27;45352;-71
2022/03/23 12:31:38;;;;;;;;;16.00;16.00;;;;;;;;5093902;27;45493;-70
2022/03/23 12:34:06;;;;;;;;;14.25;13.25;;;;;;;;5093228;27;45491;-71
2022/03/23 12:36:56;;;;;;;;;14.00;12.75;;;;;;;;5092429;27;47233;-70
2022/03/23 12:39:24;;;;;;;;;12.75;10.75;;;;;;;;5092131;27;45330;-70
2022/03/23 12:41:49;;;;;;;;;13.50;13.25;;;;;;;;5093012;27;45394;-70
2022/03/23 12:44:14;;;;;;;;;14.75;12.75;;;;;;;;5094542;27;45337;-71
2022/03/23 12:46:45;;;;;;;;;11.50;11.00;;;;;;;;5096116;27;46909;-71
2022/03/23 12:57:49;;;;;;;;;12.75;12.75;;;;;;;;5094014;27;45917;-70
2022/03/23 13:00:26;;;;;;;;;14.00;13.50;;;;;;;;5094067;27;45400;-71
2022/03/23 13:03:07;;;;;;;;;14.75;13.50;;;;;;;;5094844;27;45422;-71
2022/03/23 13:05:32;;;;;;;;;15.50;13.25;;;;;;;;5094217;27;45711;-71
2022/03/23 13:07:57;;;;;;;;;11.50;11.50;;;;;;;;5096332;27;46264;-72
2022/03/23 13:10:24;;;;;;;;;12.50;12.50;;;;;;;;5087282;27;45460;-70
2022/03/23 13:12:50;;;;;;;;;15.75;12.25;;;;;;;;5088017;27;45426;-70
2022/03/23 13:15:17;;;;;;;;;14.75;14.50;;;;;;;;5093564;27;45460;-70
2022/03/23 13:17:43;;;;;;;;;17.25;14.00;;;;;;;;5092383;27;45557;-71
2022/03/23 13:20:10;;;;;;;;;13.50;13.50;;;;;;;;5095202;27;45536;-70
2022/03/23 13:22:39;;;;;;;;;17.50;15.25;;;;;;;;5094733;27;45366;-70
2022/03/23 13:25:05;;;;;;;;;12.25;12.00;;;;;;;;5092071;27;45489;-70
2022/03/23 13:27:31;;;;;;;;;14.00;14.00;;;;;;;;5092047;27;46247;-71
2022/03/23 13:30:03;;;;;;;;;17.25;15.00;;;;;;;;5093835;27;45676;-74
2022/03/23 13:32:32;;;;;;;;;13.50;13.50;;;;;;;;5091825;27;45419;-74
2022/03/23 13:34:57;;;;;;;;;12.00;11.75;;;;;;;;5096081;27;45445;-75
2022/03/23 13:37:23;;;;;;;;;15.75;15.00;;;;;;;;5093171;27;45528;-75
2022/03/23 13:39:48;;;;;;;;;14.25;12.25;;;;;;;;5091463;27;45328;-74
2022/03/23 13:45:03;;;;;;;;;13.00;12.50;;;;;;;;5091851;27;45488;-75
2022/03/23 13:47:36;;;;;;;;;14.25;14.25;;;;;;;;5093503;27;46437;-74
2022/03/23 13:50:03;;;;;;;;;16.25;14.75;;;;;;;;5087398;27;45543;-74
2022/03/23 13:52:29;;;;;;;;;16.75;14.50;;;;;;;;5097481;27;45382;-74
2022/03/23 13:54:58;;;;;;;;;16.25;16.25;;;;;;;;5091696;27;45478;-74
2022/03/23 13:57:23;;;;;;;;;16.75;14.50;;;;;;;;5085953;27;46543;-74
2022/03/23 13:59:49;;;;;;;;;19.00;17.25;;;;;;;;5094588;27;45435;-74
2022/03/23 14:02:16;;;;;;;;;13.50;13.50;;;;;;;;5098151;27;45333;-74
2022/03/23 14:04:42;;;;;;;;;13.50;13.25;;;;;;;;5098590;27;45459;-74
2022/03/23 14:07:08;;;;;;;;;14.00;13.50;;;;;;;;5096714;27;46003;-74
2022/03/23 14:09:37;;;;;;;;;17.50;15.75;;;;;;;;5096404;27;45334;-74
2022/03/23 14:14:31;;;;;;;;;18.25;17.75;;;;;;;;5097003;27;45568;-75
2022/03/23 14:17:01;;;;;;;;;14.50;14.00;;;;;;;;5099001;27;46387;-74
2022/03/23 14:19:29;;;;;;;;;16.75;16.25;;;;;;;;5096609;27;45319;-74
2022/03/23 14:21:58;;;;;;;;;15.75;14.75;;;;;;;;5097260;27;45447;-74
2022/03/23 14:24:27;;;;;;;;;18.25;14.25;;;;;;;;5098456;27;45364;-74
2022/03/23 14:26:52;;;;;;;;;18.00;15.00;;;;;;;;5098005;27;47609;-74
2022/03/23 14:29:20;;;;;;;;;14.25;14.25;;;;;;;;5098740;27;45346;-75
2022/03/23 14:31:45;;;;;;;;;17.25;15.25;;;;;;;;5098758;27;45483;-75
2022/03/23 14:34:10;;;;;;;;;13.50;13.50;;;;;;;;5098326;27;45499;-74
2022/03/23 14:36:37;;;;;;;;;13.75;13.75;;;;;;;;5097726;27;46084;-74
2022/03/23 14:39:14;;;;;;;;;16.50;13.00;;;;;;;;5093431;27;45544;-75
2022/03/23 14:41:53;;;;;;;;;16.75;16.75;;;;;;;;5062413;27;56253;-74
2022/03/23 14:44:30;;;;;;;;;17.75;14.00;;;;;;;;5097100;27;45354;-74